Time;durP1;ratioP1;P1;durP2;ratioP2;P2;SDS_P1;SDS_P2;PMS_P1;PMS_P2;Temp;Humidity;BMP_temperature;BMP_pressure;BME280_temperature;BME280_humidity;BME280_pressure;Samples;Min_cycle;Max_cycle;Signal;HPM_P1;HPM_P2
2021/09/22 00:00:54;;;;;;;40.97;15.33;;;;;;;10.67;100.00;-19444.88;5016908;28;20031;-68
2021/09/22 00:03:20;;;;;;;43.90;14.10;;;;;;;10.58;100.00;-19442.50;5021454;28;20038;-67
2021/09/22 00:05:46;;;;;;;47.13;15.47;;;;;;;10.53;100.00;-19441.31;5020515;28;20391;-68
2021/09/22 00:08:12;;;;;;;52.17;16.50;;;;;;;10.45;100.00;-19439.06;5023006;28;20120;-67
2021/09/22 00:10:38;;;;;;;59.90;17.07;;;;;;;10.46;100.00;-19439.47;5019671;28;20120;-67
2021/09/22 00:13:07;;;;;;;65.33;17.37;;;;;;;10.42;100.00;-19438.41;5014091;28;20517;-68
2021/09/22 00:15:33;;;;;;;67.50;17.83;;;;;;;10.36;100.00;-19436.72;5018298;28;20187;-68
2021/09/22 00:17:59;;;;;;;70.27;17.47;;;;;;;10.30;100.00;-19435.25;5022472;28;20025;-68
2021/09/22 00:20:25;;;;;;;63.13;17.87;;;;;;;10.25;100.00;-19433.94;5020262;28;20029;-67
2021/09/22 00:22:58;;;;;;;64.80;17.93;;;;;;;10.22;100.00;-19433.16;5031084;28;20063;-68
2021/09/22 00:25:25;;;;;;;73.40;18.23;;;;;;;10.19;100.00;-19432.34;5026999;28;20475;-68
2021/09/22 00:27:51;;;;;;;79.73;18.63;;;;;;;10.32;100.00;-19435.78;5016634;28;20098;-68
2021/09/22 00:30:18;;;;;;;84.47;19.87;;;;;;;10.33;100.00;-19436.03;5025948;28;20068;-68
2021/09/22 00:32:49;;;;;;;73.63;18.70;;;;;;;10.27;100.00;-19434.59;5018487;28;20393;-68
2021/09/22 00:35:15;;;;;;;92.10;18.73;;;;;;;10.21;100.00;-19432.88;5018544;28;20029;-68
2021/09/22 00:37:41;;;;;;;83.17;20.43;;;;;;;10.19;100.00;-19432.50;5018931;28;20548;-67
2021/09/22 00:40:08;;;;;;;93.17;19.93;;;;;;;10.16;100.00;-19431.56;5029812;28;20055;-67
2021/09/22 00:42:34;;;;;;;93.50;20.70;;;;;;;10.09;100.00;-19429.72;5021032;28;20018;-68
2021/09/22 00:45:05;;;;;;;94.00;20.03;;;;;;;10.02;100.00;-19428.00;5019209;28;20037;-67
2021/09/22 00:47:31;;;;;;;104.03;20.98;;;;;;;10.01;100.00;-19427.75;5016805;28;20562;-67
2021/09/22 00:49:57;;;;;;;98.87;20.80;;;;;;;10.06;100.00;-19428.94;5025568;28;20036;-68
2021/09/22 00:52:24;;;;;;;105.83;21.20;;;;;;;10.07;100.00;-19429.19;5024202;28;20529;-67
2021/09/22 00:54:50;;;;;;;100.00;20.63;;;;;;;10.03;100.00;-19428.16;5016408;28;20186;-68
2021/09/22 00:57:17;;;;;;;108.53;20.90;;;;;;;9.98;100.00;-19427.09;5016579;28;20037;-67
2021/09/22 00:59:43;;;;;;;96.33;21.80;;;;;;;10.02;100.00;-19428.00;5021182;28;20275;-68
2021/09/22 01:02:10;;;;;;;104.00;21.70;;;;;;;-145.18;100.00;60484.78;5021845;28;20065;-68
2021/09/22 01:04:37;;;;;;;116.03;22.83;;;;;;;-145.18;100.00;60484.78;5016515;28;20037;-68
2021/09/22 01:07:05;;;;;;;111.60;20.27;;;;;;;-145.18;100.00;60484.78;5020145;28;20383;-67
2021/09/22 01:10:31;;;;;;;118.27;21.30;;;;;;;-145.18;100.00;60484.78;5015987;28;20056;-68
2021/09/22 01:13:55;;;;;;;116.23;23.70;;;;;;;-145.18;100.00;60484.78;5018939;28;20047;-68
2021/09/22 01:17:20;;;;;;;109.27;21.27;;;;;;;-145.18;100.00;60484.78;5017300;28;20037;-68
2021/09/22 01:20:45;;;;;;;112.03;20.87;;;;;;;-145.18;100.00;60484.78;5017224;28;20037;-68
2021/09/22 01:24:10;;;;;;;121.40;22.43;;;;;;;-145.18;100.00;60484.78;5021898;28;20028;-68
2021/09/22 01:27:44;;;;;;;118.10;23.00;;;;;;;-145.18;100.00;60484.78;5024470;28;20025;-68
2021/09/22 01:31:08;;;;;;;126.00;24.03;;;;;;;-145.18;100.00;60484.78;5013838;28;20029;-68
2021/09/22 01:34:32;;;;;;;129.83;23.77;;;;;;;-145.18;100.00;60484.78;5019538;28;20536;-68
2021/09/22 01:37:34;;;;;;;113.23;23.00;;;;;;;-145.18;100.00;60484.78;5016550;28;20039;-68
2021/09/22 01:41:00;;;;;;;109.50;23.45;;;;;;;-145.18;100.00;60484.78;5017401;28;20228;-68
2021/09/22 01:44:25;;;;;;;113.57;22.40;;;;;;;-145.18;100.00;60484.78;5013442;28;20034;-68
2021/09/22 01:47:49;;;;;;;118.23;22.20;;;;;;;-145.18;100.00;60484.78;5016885;28;20033;-68
2021/09/22 01:51:14;;;;;;;108.13;21.53;;;;;;;-145.18;100.00;60484.78;5015016;28;20122;-68
2021/09/22 01:53:54;;;;;;;106.20;22.50;;;;;;;10.02;100.00;-19428.00;5019559;28;20026;-68
2021/09/22 01:57:18;;;;;;;114.40;23.13;;;;;;;-145.18;100.00;60484.78;5019557;28;20280;-68
2021/09/22 02:00:42;;;;;;;110.23;22.10;;;;;;;-145.18;100.00;60484.78;5012288;28;20485;-68
2021/09/22 02:04:06;;;;;;;117.93;22.57;;;;;;;-145.18;100.00;60484.78;5020901;28;20037;-68
2021/09/22 02:07:31;;;;;;;126.17;24.23;;;;;;;-145.18;100.00;60484.78;5011530;28;20030;-71
2021/09/22 02:10:56;;;;;;;128.10;24.00;;;;;;;-145.18;100.00;60484.78;5021898;28;20484;-71
2021/09/22 02:14:23;;;;;;;131.30;24.23;;;;;;;-145.18;100.00;60484.78;5017458;28;20079;-71
2021/09/22 02:17:47;;;;;;;128.43;23.33;;;;;;;-145.18;100.00;60484.78;5016800;28;20072;-71
2021/09/22 02:21:11;;;;;;;147.50;26.27;;;;;;;-145.18;100.00;60484.78;5012218;28;20184;-68
2021/09/22 02:24:42;;;;;;;138.67;24.97;;;;;;;-145.18;100.00;60484.78;5017748;28;20736;-68
2021/09/22 02:28:06;;;;;;;150.97;28.03;;;;;;;-145.18;100.00;60484.78;5017891;28;20390;-68
2021/09/22 02:31:31;;;;;;;139.37;25.67;;;;;;;-145.18;100.00;60484.78;5025372;28;20653;-68
2021/09/22 02:34:55;;;;;;;137.80;25.40;;;;;;;-145.18;100.00;60484.78;5012597;28;20033;-68
2021/09/22 02:38:19;;;;;;;130.50;26.40;;;;;;;-145.18;100.00;60484.78;5014552;28;20064;-68
2021/09/22 02:41:43;;;;;;;156.70;28.03;;;;;;;-145.18;100.00;60484.78;5015221;28;20026;-68
2021/09/22 02:45:08;;;;;;;141.10;24.57;;;;;;;-145.18;100.00;60484.78;5018837;28;20248;-66
2021/09/22 02:48:32;;;;;;;136.10;25.17;;;;;;;-145.18;100.00;60484.78;5018604;28;20026;-67
2021/09/22 02:51:56;;;;;;;153.47;26.87;;;;;;;-145.18;100.00;60484.78;5024257;28;20029;-68
2021/09/22 02:55:20;;;;;;;164.37;25.93;;;;;;;-145.18;100.00;60484.78;5018108;28;20021;-68
2021/09/22 02:58:45;;;;;;;150.17;25.77;;;;;;;-145.18;100.00;60484.78;5018248;28;20320;-68
2021/09/22 03:02:09;;;;;;;164.47;26.83;;;;;;;-145.18;100.00;60484.78;5022106;28;20375;-68
2021/09/22 03:05:33;;;;;;;160.30;29.07;;;;;;;-145.18;100.00;60484.78;5017605;28;20089;-67
2021/09/22 03:08:57;;;;;;;157.07;28.27;;;;;;;-145.18;100.00;60484.78;5019319;28;20076;-67
2021/09/22 03:12:21;;;;;;;174.07;30.60;;;;;;;-145.18;100.00;60484.78;5019798;28;20333;-67
2021/09/22 03:15:45;;;;;;;169.30;27.50;;;;;;;-145.18;100.00;60484.78;5017747;28;20032;-67
2021/09/22 03:19:09;;;;;;;168.93;26.50;;;;;;;-145.18;100.00;60484.78;5016842;28;20274;-67
2021/09/22 03:22:33;;;;;;;187.03;27.13;;;;;;;-145.18;100.00;60484.78;5015349;28;20509;-67
2021/09/22 03:25:57;;;;;;;188.73;27.30;;;;;;;-145.18;100.00;60484.78;5019771;28;20432;-68
2021/09/22 03:29:21;;;;;;;160.57;26.73;;;;;;;-145.18;100.00;60484.78;5022144;28;20029;-67
2021/09/22 03:32:45;;;;;;;186.70;25.97;;;;;;;-145.18;100.00;60484.78;5021240;28;20040;-68
2021/09/22 03:36:10;;;;;;;158.97;25.80;;;;;;;-145.18;100.00;60484.78;5021437;28;20025;-67
2021/09/22 03:39:34;;;;;;;198.77;27.10;;;;;;;-145.18;100.00;60484.78;5014400;28;20355;-67
2021/09/22 03:42:58;;;;;;;197.87;24.93;;;;;;;-145.18;100.00;60484.78;5023750;28;20126;-67
2021/09/22 03:46:22;;;;;;;220.23;25.13;;;;;;;-145.18;100.00;60484.78;5020559;28;20492;-67
2021/09/22 03:49:46;;;;;;;226.70;25.30;;;;;;;-145.18;100.00;60484.78;5021581;28;20087;-67
2021/09/22 03:53:10;;;;;;;257.50;27.23;;;;;;;-145.18;100.00;60484.78;5029507;28;20044;-67
2021/09/22 03:56:35;;;;;;;252.87;25.27;;;;;;;-145.18;100.00;60484.78;5019512;28;20083;-67
2021/09/22 03:59:59;;;;;;;232.47;24.77;;;;;;;-145.18;100.00;60484.78;5016823;28;20040;-67
2021/09/22 04:03:23;;;;;;;170.60;21.57;;;;;;;-145.18;100.00;60484.78;5017895;28;20111;-67
2021/09/22 04:06:47;;;;;;;199.97;23.17;;;;;;;-145.18;100.00;60484.78;5024533;28;20436;-67
2021/09/22 04:10:11;;;;;;;213.93;22.37;;;;;;;-145.18;100.00;60484.78;5021379;28;20085;-67
2021/09/22 04:13:35;;;;;;;248.90;22.80;;;;;;;-145.18;100.00;60484.78;5020793;28;20390;-67
2021/09/22 04:16:59;;;;;;;227.73;23.97;;;;;;;-145.18;100.00;60484.78;5022372;28;20029;-67
2021/09/22 04:20:23;;;;;;;282.27;24.73;;;;;;;-145.18;100.00;60484.78;5019830;28;20108;-67
2021/09/22 04:23:47;;;;;;;174.90;23.20;;;;;;;-145.18;100.00;60484.78;5018050;28;20036;-67
2021/09/22 04:27:15;;;;;;;213.10;22.80;;;;;;;-145.18;100.00;60484.78;5020094;28;20095;-67
2021/09/22 04:30:39;;;;;;;261.73;23.80;;;;;;;-145.18;100.00;60484.78;5019557;28;20041;-67
2021/09/22 04:34:04;;;;;;;197.20;22.70;;;;;;;-145.18;100.00;60484.78;5018143;28;20488;-67
2021/09/22 04:37:34;;;;;;;248.27;23.43;;;;;;;-145.18;100.00;60484.78;5021115;28;20029;-67
2021/09/22 04:40:59;;;;;;;215.53;23.97;;;;;;;-145.18;100.00;60484.78;5016156;28;20087;-67
2021/09/22 04:44:23;;;;;;;193.93;22.80;;;;;;;-145.18;100.00;60484.78;5019200;28;20040;-67
2021/09/22 04:47:47;;;;;;;214.83;22.13;;;;;;;-145.18;100.00;60484.78;5018291;28;20120;-68
2021/09/22 04:51:11;;;;;;;135.63;20.33;;;;;;;-145.18;100.00;60484.78;5018416;28;20036;-68
2021/09/22 04:54:35;;;;;;;188.50;21.93;;;;;;;-145.18;100.00;60484.78;5012787;28;20060;-67
2021/09/22 04:57:59;;;;;;;162.93;19.90;;;;;;;-145.18;100.00;60484.78;5015108;28;20025;-68
2021/09/22 05:01:26;;;;;;;174.30;20.47;;;;;;;-145.18;100.00;60484.78;5017354;28;20112;-68
2021/09/22 05:04:51;;;;;;;156.70;20.27;;;;;;;-145.18;100.00;60484.78;5018004;28;20073;-68
2021/09/22 05:08:15;;;;;;;208.50;21.10;;;;;;;-145.18;100.00;60484.78;5004571;28;20046;-68
2021/09/22 05:11:42;;;;;;;183.50;21.27;;;;;;;-145.18;100.00;60484.78;5017979;28;20242;-68
2021/09/22 05:15:07;;;;;;;232.07;22.47;;;;;;;-145.18;100.00;60484.78;5004585;28;20092;-68
2021/09/22 05:18:31;;;;;;;151.73;20.90;;;;;;;-145.18;100.00;60484.78;5017657;28;20570;-68
2021/09/22 05:21:55;;;;;;;187.20;21.57;;;;;;;-145.18;100.00;60484.78;5004143;28;20682;-68
2021/09/22 05:25:19;;;;;;;172.43;20.93;;;;;;;-145.18;100.00;60484.78;5009720;28;20630;-68
2021/09/22 05:28:47;;;;;;;135.17;20.70;;;;;;;-145.18;100.00;60484.78;5019046;28;20033;-68
2021/09/22 05:32:12;;;;;;;166.23;20.27;;;;;;;-145.18;100.00;60484.78;5010549;28;20055;-68
2021/09/22 05:35:37;;;;;;;184.50;20.03;;;;;;;-145.18;100.00;60484.78;5009962;28;20588;-68
2021/09/22 05:39:04;;;;;;;164.43;20.13;;;;;;;-145.18;100.00;60484.78;5011366;28;20029;-68
2021/09/22 05:42:28;;;;;;;143.10;18.23;;;;;;;-145.18;100.00;60484.78;5012194;28;20165;-68
2021/09/22 05:45:54;;;;;;;93.70;17.17;;;;;;;-145.18;100.00;60484.78;5013458;28;20021;-68
2021/09/22 05:49:18;;;;;;;114.47;16.70;;;;;;;-145.18;100.00;60484.78;5009341;28;20387;-68
2021/09/22 05:52:45;;;;;;;113.00;16.70;;;;;;;-145.18;100.00;60484.78;5016618;28;20458;-69
2021/09/22 05:56:10;;;;;;;110.33;17.43;;;;;;;-145.18;100.00;60484.78;5012071;28;20041;-67
2021/09/22 05:59:34;;;;;;;128.70;17.27;;;;;;;-145.18;100.00;60484.78;5015506;28;20033;-68
2021/09/22 06:02:58;;;;;;;117.13;17.67;;;;;;;-145.18;100.00;60484.78;5012612;28;20266;-67
2021/09/22 06:06:23;;;;;;;117.13;17.77;;;;;;;-145.18;100.00;60484.78;5016282;28;20409;-67
2021/09/22 06:09:47;;;;;;;118.17;17.97;;;;;;;-145.18;100.00;60484.78;5013093;28;20029;-67
2021/09/22 06:13:12;;;;;;;130.23;18.63;;;;;;;-145.18;100.00;60484.78;5015468;28;20033;-67
2021/09/22 06:16:39;;;;;;;118.47;17.27;;;;;;;-145.18;100.00;60484.78;5017526;28;20507;-67
2021/09/22 06:20:07;;;;;;;93.43;16.80;;;;;;;-145.18;100.00;60484.78;5015459;28;20091;-67
2021/09/22 06:23:31;;;;;;;81.37;17.30;;;;;;;-145.18;100.00;60484.78;5013210;28;20038;-67
2021/09/22 06:26:55;;;;;;;78.00;16.83;;;;;;;-145.18;100.00;60484.78;5015619;28;20034;-68
2021/09/22 06:30:20;;;;;;;82.43;16.47;;;;;;;-145.18;100.00;60484.78;5016586;28;20041;-67
2021/09/22 06:33:44;;;;;;;77.50;17.43;;;;;;;-145.18;100.00;60484.78;5013724;28;20033;-67
2021/09/22 06:37:09;;;;;;;78.73;17.83;;;;;;;-145.18;100.00;60484.78;5017198;28;20032;-67
2021/09/22 06:40:33;;;;;;;74.77;16.50;;;;;;;-145.18;100.00;60484.78;5017412;28;20095;-68
2021/09/22 06:43:59;;;;;;;82.00;17.77;;;;;;;-145.18;100.00;60484.78;5013265;28;20040;-68
2021/09/22 06:47:23;;;;;;;71.07;16.67;;;;;;;-145.18;100.00;60484.78;5016007;28;20044;-68
2021/09/22 06:50:48;;;;;;;71.97;16.33;;;;;;;-145.18;100.00;60484.78;5013375;28;20160;-68
2021/09/22 06:54:12;;;;;;;63.53;16.57;;;;;;;-145.18;100.00;60484.78;5015539;28;20045;-68
2021/09/22 06:57:36;;;;;;;63.10;15.93;;;;;;;-145.18;100.00;60484.78;5020241;28;20029;-69
2021/09/22 07:01:02;;;;;;;65.07;16.70;;;;;;;-145.18;100.00;60484.78;5023323;28;20040;-72
2021/09/22 07:04:26;;;;;;;58.60;15.33;;;;;;;-145.18;100.00;60484.78;5021992;28;20048;-72
2021/09/22 07:07:50;;;;;;;58.97;15.93;;;;;;;-145.18;100.00;60484.78;5022265;28;20049;-71
2021/09/22 07:11:15;;;;;;;47.37;14.40;;;;;;;-145.18;100.00;60484.78;5025285;28;20121;-71
2021/09/22 07:14:39;;;;;;;44.33;15.00;;;;;;;-145.18;100.00;60484.78;5022156;28;20082;-71
2021/09/22 07:18:03;;;;;;;44.80;14.83;;;;;;;-145.18;100.00;60484.78;5021978;28;20021;-71
2021/09/22 07:21:27;;;;;;;45.33;15.53;;;;;;;-145.18;100.00;60484.78;5021819;28;20033;-71
2021/09/22 07:24:51;;;;;;;39.03;14.27;;;;;;;-145.18;100.00;60484.78;5023438;28;20034;-71
2021/09/22 07:28:15;;;;;;;36.20;13.27;;;;;;;-145.18;100.00;60484.78;5014003;28;20347;-71
2021/09/22 07:31:39;;;;;;;35.73;13.83;;;;;;;-145.18;100.00;60484.78;5015188;28;20025;-71
2021/09/22 07:35:04;;;;;;;41.23;13.80;;;;;;;-145.18;100.00;60484.78;5020974;28;20030;-71
2021/09/22 07:38:28;;;;;;;38.10;13.63;;;;;;;-145.18;100.00;60484.78;5021378;28;20033;-71
2021/09/22 07:41:52;;;;;;;32.00;12.67;;;;;;;-145.18;100.00;60484.78;5021081;28;20111;-71
2021/09/22 07:45:17;;;;;;;30.03;12.23;;;;;;;-145.18;100.00;60484.78;5020937;28;21121;-71
2021/09/22 07:48:41;;;;;;;30.47;12.10;;;;;;;-145.18;100.00;60484.78;5021030;28;20057;-71
2021/09/22 07:52:05;;;;;;;32.63;12.03;;;;;;;-145.18;100.00;60484.78;5020110;28;20033;-71
2021/09/22 07:55:29;;;;;;;27.23;11.83;;;;;;;-145.18;100.00;60484.78;5021971;28;20129;-71
2021/09/22 07:58:53;;;;;;;30.83;12.87;;;;;;;-145.18;100.00;60484.78;5021721;28;20041;-71
2021/09/22 08:02:18;;;;;;;25.27;12.20;;;;;;;-145.18;100.00;60484.78;5016133;28;20055;-71
2021/09/22 08:05:42;;;;;;;24.33;11.63;;;;;;;-145.18;100.00;60484.78;5021681;28;20045;-70
2021/09/22 08:09:07;;;;;;;17.13;8.73;;;;;;;-145.18;100.00;60484.78;5021015;28;20233;-71
2021/09/22 08:12:31;;;;;;;18.77;9.23;;;;;;;-145.18;100.00;60484.78;5024435;28;20485;-71
2021/09/22 08:15:55;;;;;;;23.23;9.70;;;;;;;-145.18;100.00;60484.78;5020210;28;20478;-71
2021/09/22 08:19:19;;;;;;;22.83;10.40;;;;;;;-145.18;100.00;60484.78;5014501;28;20281;-71
2021/09/22 08:22:44;;;;;;;22.60;9.63;;;;;;;-145.18;100.00;60484.78;5016301;28;20030;-71
2021/09/22 08:26:08;;;;;;;21.40;10.47;;;;;;;-145.18;100.00;60484.78;5022947;28;20524;-71
2021/09/22 08:29:33;;;;;;;21.67;10.67;;;;;;;-145.18;100.00;60484.78;5023209;28;20041;-71
2021/09/22 08:32:57;;;;;;;24.23;10.90;;;;;;;-145.18;100.00;60484.78;5020252;28;20041;-71
2021/09/22 08:36:21;;;;;;;24.07;11.40;;;;;;;-145.18;100.00;60484.78;5018889;28;20033;-71
2021/09/22 08:39:45;;;;;;;23.63;10.57;;;;;;;-145.18;100.00;60484.78;5020418;28;20422;-71
2021/09/22 08:43:11;;;;;;;22.33;10.60;;;;;;;-145.18;100.00;60484.78;5020360;28;20037;-71
2021/09/22 08:46:36;;;;;;;19.83;9.83;;;;;;;-145.18;100.00;60484.78;5012503;28;20037;-71
2021/09/22 08:50:03;;;;;;;20.50;10.00;;;;;;;-145.18;100.00;60484.78;5013535;28;20029;-71
2021/09/22 08:53:27;;;;;;;21.25;10.70;;;;;;;-145.18;100.00;60484.78;5015628;28;20029;-71
2021/09/22 08:56:52;;;;;;;21.17;9.73;;;;;;;-145.18;100.00;60484.78;5020765;28;20091;-71
2021/09/22 09:00:16;;;;;;;24.42;11.00;;;;;;;-145.18;100.00;60484.78;5018920;28;20036;-71
2021/09/22 09:03:44;;;;;;;21.92;10.20;;;;;;;-145.18;100.00;60484.78;5020854;28;20064;-71
2021/09/22 09:07:18;;;;;;;17.67;9.68;;;;;;;-145.18;100.00;60484.78;5024071;28;20543;-71
2021/09/22 09:10:53;;;;;;;20.45;9.82;;;;;;;-145.18;100.00;60484.78;5019647;28;20044;-71
2021/09/22 09:14:17;;;;;;;19.17;9.57;;;;;;;-145.18;100.00;60484.78;5022030;28;20197;-71
2021/09/22 09:17:47;;;;;;;17.75;9.15;;;;;;;-145.18;100.00;60484.78;5020711;28;20022;-71
2021/09/22 09:21:18;;;;;;;16.50;8.50;;;;;;;-145.18;100.00;60484.78;5018146;28;20175;-71
2021/09/22 09:25:00;;;;;;;18.77;10.05;;;;;;;-145.18;100.00;60484.78;5013504;28;20041;-71
2021/09/22 09:28:37;;;;;;;16.73;8.68;;;;;;;-145.18;100.00;60484.78;5018871;28;20430;-71
2021/09/22 09:32:26;;;;;;;18.38;9.73;;;;;;;-145.18;100.00;60484.78;5011267;28;20070;-70
2021/09/22 09:36:17;;;;;;;18.73;9.90;;;;;;;-145.18;100.00;60484.78;5016019;28;20124;-71
2021/09/22 09:40:16;;;;;;;23.65;10.30;;;;;;;-145.18;100.00;60484.78;5013576;28;20033;-71
2021/09/22 09:43:49;;;;;;;21.27;9.88;;;;;;;-145.18;100.00;60484.78;5016278;28;20566;-71
2021/09/22 09:47:19;;;;;;;18.88;8.85;;;;;;;-145.18;100.00;60484.78;5017736;28;20225;-71
2021/09/22 09:50:52;;;;;;;19.92;10.20;;;;;;;-145.18;100.00;60484.78;5021228;28;20048;-71
2021/09/22 09:54:20;;;;;;;;;;;;;;;-145.18;100.00;60484.78;5019281;28;20040;-70
2021/09/22 09:57:49;;;;;;;18.45;8.00;;;;;;;-145.18;100.00;60484.78;5021610;28;19913;-71
2021/09/22 10:01:17;;;;;;;16.80;7.88;;;;;;;-145.18;100.00;60484.78;5017788;28;20405;-71
2021/09/22 10:04:41;;;;;;;18.08;8.82;;;;;;;-145.18;100.00;60484.78;5018373;28;20119;-70
2021/09/22 10:08:10;;;;;;;18.27;9.07;;;;;;;-145.18;100.00;60484.78;5020915;28;20152;-71
2021/09/22 10:11:35;;;;;;;19.53;8.27;;;;;;;-145.18;100.00;60484.78;5018711;28;20025;-71
2021/09/22 10:15:00;;;;;;;19.73;9.17;;;;;;;-145.18;100.00;60484.78;5019967;28;20044;-71
2021/09/22 10:18:30;;;;;;;16.87;8.73;;;;;;;-145.18;100.00;60484.78;5024830;28;20103;-71
2021/09/22 10:21:54;;;;;;;19.27;7.97;;;;;;;-145.18;100.00;60484.78;5020478;28;20289;-71
2021/09/22 10:25:21;;;;;;;18.10;8.23;;;;;;;-145.18;100.00;60484.78;5011184;28;20033;-71
2021/09/22 10:28:47;;;;;;;18.93;8.50;;;;;;;-145.18;100.00;60484.78;5017828;28;20037;-71
2021/09/22 10:32:35;;;;;;;15.98;7.93;;;;;;;-145.18;100.00;60484.78;5030089;28;20091;-71
2021/09/22 10:36:32;;;;;;;14.77;7.83;;;;;;;-145.18;100.00;60484.78;5023250;28;20034;-71
2021/09/22 10:39:56;;;;;;;17.80;7.57;;;;;;;-145.18;100.00;60484.78;5023420;28;20393;-71
2021/09/22 10:43:25;;;;;;;18.50;8.38;;;;;;;-145.18;100.00;60484.78;5021120;28;20549;-71
2021/09/22 10:47:30;;;;;;;16.83;7.93;;;;;;;-145.18;100.00;60484.78;5020610;28;20565;-71
2021/09/22 10:50:55;;;;;;;21.90;7.60;;;;;;;-145.18;100.00;60484.78;4960160;28;20113;-71
2021/09/22 10:54:59;;;;;;;15.95;7.20;;;;;;;-145.18;100.00;60484.78;4960578;28;20648;-71
2021/09/22 10:58:31;;;;;;;13.90;6.35;;;;;;;-145.18;100.00;60484.78;4957914;28;20039;-70
2021/09/22 11:01:55;;;;;;;17.05;7.35;;;;;;;-145.18;100.00;60484.78;4966308;28;20130;-70
2021/09/22 11:05:48;;;;;;;14.95;6.47;;;;;;;-145.18;100.00;60484.78;4960702;28;20099;-71
2021/09/22 11:09:38;;;;;;;16.70;7.65;;;;;;;-145.18;100.00;60484.78;4947837;28;20555;-71
2021/09/22 11:13:43;;;;;;;17.83;7.80;;;;;;;-145.18;100.00;60484.78;4957962;28;20174;-70
2021/09/22 11:17:16;;;;;;;15.57;6.90;;;;;;;-145.18;100.00;60484.78;4938605;28;20454;-71
2021/09/22 11:20:50;;;;;;;17.05;7.93;;;;;;;-145.18;100.00;60484.78;4940202;29;20286;-71
2021/09/22 11:24:16;;;;;;;15.75;7.30;;;;;;;-145.18;100.00;60484.78;4949083;28;20043;-71
2021/09/22 11:27:47;;;;;;;18.40;8.60;;;;;;;-145.18;100.00;60484.78;4963605;28;20107;-71
2021/09/22 11:31:14;;;;;;;18.27;8.00;;;;;;;-145.18;100.00;60484.78;4961598;28;20064;-71
2021/09/22 11:34:39;;;;;;;16.30;8.52;;;;;;;-145.18;100.00;60484.78;4959892;28;20306;-71
2021/09/22 11:38:08;;;;;;;16.17;7.53;;;;;;;-145.18;100.00;60484.78;4962015;28;20612;-71
2021/09/22 11:41:34;;;;;;;20.23;8.65;;;;;;;-145.18;100.00;60484.78;4955710;28;20665;-72
2021/09/22 11:45:05;;;;;;;17.27;6.72;;;;;;;-145.18;100.00;60484.78;4955987;28;20495;-71
2021/09/22 11:48:36;;;;;;;16.38;7.60;;;;;;;-145.18;100.00;60484.78;5012570;28;20124;-71
2021/09/22 11:52:09;;;;;;;14.70;7.57;;;;;;;-145.18;100.00;60484.78;5017568;28;20034;-71
2021/09/22 11:55:34;;;;;;;15.75;7.00;;;;;;;-145.18;100.00;60484.78;5001573;28;20407;-72
2021/09/22 11:59:29;;;;;;;16.48;7.82;;;;;;;-145.18;100.00;60484.78;5003482;28;20071;-71
2021/09/22 12:02:55;;;;;;;19.08;8.50;;;;;;;-145.18;100.00;60484.78;4997146;28;20034;-71
2021/09/22 12:06:20;;;;;;;17.45;8.52;;;;;;;-145.18;100.00;60484.78;4990437;28;20041;-71
2021/09/22 12:09:48;;;;;;;15.77;7.30;;;;;;;-145.18;100.00;60484.78;4993233;28;20482;-71
2021/09/22 12:13:16;;;;;;;13.93;7.15;;;;;;;-145.18;100.00;60484.78;4992598;28;20141;-71
2021/09/22 12:16:41;;;;;;;15.18;7.25;;;;;;;-145.18;100.00;60484.78;4997235;28;20107;-71
2021/09/22 12:20:10;;;;;;;16.05;7.18;;;;;;;-145.18;100.00;60484.78;4989823;28;20046;-70
2021/09/22 12:23:35;;;;;;;15.38;6.55;;;;;;;-145.18;100.00;60484.78;4982410;28;20037;-71
2021/09/22 12:27:11;;;;;;;16.23;7.00;;;;;;;-145.18;100.00;60484.78;4978365;28;20054;-70
2021/09/22 12:30:37;;;;;;;13.40;5.93;;;;;;;-145.18;100.00;60484.78;4987218;28;20036;-70
2021/09/22 12:34:12;;;;;;;12.43;6.40;;;;;;;-145.18;100.00;60484.78;4988915;28;20034;-71
2021/09/22 12:37:41;;;;;;;13.85;6.35;;;;;;;-145.18;100.00;60484.78;4978339;28;20088;-71
2021/09/22 12:41:07;;;;;;;13.35;5.88;;;;;;;-145.18;100.00;60484.78;4995257;28;20033;-71
2021/09/22 12:44:50;;;;;;;11.70;5.55;;;;;;;-145.18;100.00;60484.78;4992130;28;20038;-71
2021/09/22 12:48:25;;;;;;;9.45;4.95;;;;;;;-145.18;100.00;60484.78;4988635;28;20030;-72
2021/09/22 12:51:51;;;;;;;10.57;5.55;;;;;;;-145.18;100.00;60484.78;4999216;28;20092;-72
2021/09/22 12:55:27;;;;;;;12.80;5.65;;;;;;;-145.18;100.00;60484.78;5003679;28;20037;-70
2021/09/22 12:59:17;;;;;;;15.35;5.90;;;;;;;-145.18;100.00;60484.78;4995211;28;20383;-69
2021/09/22 13:02:46;;;;;;;12.77;6.15;;;;;;;-145.18;100.00;60484.78;4994679;28;20034;-70
2021/09/22 13:06:16;;;;;;;10.95;5.32;;;;;;;-145.18;100.00;60484.78;5010290;28;20050;-70
2021/09/22 13:10:01;;;;;;;10.82;5.38;;;;;;;-145.18;100.00;60484.78;5005935;28;20030;-70
2021/09/22 13:13:55;;;;;;;10.05;5.55;;;;;;;-145.18;100.00;60484.78;5007693;28;20040;-70
2021/09/22 13:17:30;;;;;;;13.68;6.20;;;;;;;-145.18;100.00;60484.78;5001543;28;20292;-70
2021/09/22 13:20:54;;;;;;;12.13;6.20;;;;;;;-145.18;100.00;60484.78;5008246;28;20088;-70
2021/09/22 13:24:22;;;;;;;14.07;5.72;;;;;;;-145.18;100.00;60484.78;5013266;28;20033;-70
2021/09/22 13:27:48;;;;;;;10.05;5.45;;;;;;;-145.18;100.00;60484.78;5021159;28;20033;-71
2021/09/22 13:31:13;;;;;;;10.73;5.68;;;;;;;-145.18;100.00;60484.78;5017898;28;20183;-71
2021/09/22 13:34:37;;;;;;;13.75;5.95;;;;;;;-145.18;100.00;60484.78;5020841;28;20481;-71
2021/09/22 13:38:02;;;;;;;11.82;6.07;;;;;;;-145.18;100.00;60484.78;5012595;28;20061;-70
2021/09/22 13:41:29;;;;;;;11.70;6.05;;;;;;;-145.18;100.00;60484.78;5017111;28;20296;-70
2021/09/22 13:44:54;;;;;;;10.88;6.13;;;;;;;-145.18;100.00;60484.78;5018532;28;20329;-70
2021/09/22 13:48:19;;;;;;;13.38;6.70;;;;;;;-145.18;100.00;60484.78;5019068;28;20552;-71
2021/09/22 13:51:44;;;;;;;12.38;6.38;;;;;;;-145.18;100.00;60484.78;5018822;28;20025;-72
2021/09/22 13:55:08;;;;;;;13.75;7.15;;;;;;;-145.18;100.00;60484.78;5014664;28;20041;-69
2021/09/22 13:58:32;;;;;;;13.00;6.72;;;;;;;-145.18;100.00;60484.78;5019868;28;20202;-69
2021/09/22 14:01:57;;;;;;;15.40;6.28;;;;;;;-145.18;100.00;60484.78;5021195;28;20586;-70
2021/09/22 14:05:21;;;;;;;16.15;6.00;;;;;;;-145.18;100.00;60484.78;5022276;28;20578;-71
2021/09/22 14:08:46;;;;;;;11.68;5.68;;;;;;;-145.18;100.00;60484.78;5011393;28;20079;-71
2021/09/22 14:12:10;;;;;;;10.65;5.60;;;;;;;-145.18;100.00;60484.78;5012928;28;20035;-71
2021/09/22 14:15:36;;;;;;;13.40;5.40;;;;;;;-145.18;100.00;60484.78;5016073;28;20120;-71
2021/09/22 14:19:02;;;;;;;10.10;5.40;;;;;;;-145.18;100.00;60484.78;5011905;28;20030;-70
2021/09/22 14:22:26;;;;;;;12.57;5.80;;;;;;;-145.18;100.00;60484.78;5021098;28;20477;-70
2021/09/22 14:25:50;;;;;;;11.05;5.85;;;;;;;-145.18;100.00;60484.78;5011889;28;20131;-71
2021/09/22 14:29:16;;;;;;;9.52;5.47;;;;;;;-145.18;100.00;60484.78;5013408;28;20088;-71
2021/09/22 14:32:40;;;;;;;7.97;4.68;;;;;;;-145.18;100.00;60484.78;5013869;28;20067;-71
2021/09/22 14:36:04;;;;;;;11.68;5.95;;;;;;;-145.18;100.00;60484.78;5016029;28;20425;-71
2021/09/22 14:39:29;;;;;;;13.60;5.38;;;;;;;-145.18;100.00;60484.78;5016191;28;20236;-71
2021/09/22 14:42:54;;;;;;;10.13;5.53;;;;;;;-145.18;100.00;60484.78;5014285;28;20030;-72
2021/09/22 14:46:19;;;;;;;10.18;5.63;;;;;;;-145.18;100.00;60484.78;5030665;28;20036;-72
2021/09/22 14:49:43;;;;;;;11.90;5.43;;;;;;;-145.18;100.00;60484.78;5009921;28;20112;-70
2021/09/22 14:53:07;;;;;;;11.13;5.05;;;;;;;-145.18;100.00;60484.78;5019101;28;20124;-70